Terminal Aerodrome Forecast
Issued by NWS Cleveland, OH

Home | Current Version | Previous Version | Text Only | Print | Product List | Glossary On
Versions: 1 2 3 4 5 6 7 8 9 10 11 12 13 14 15 16 17 18 19 20 21 22 23 24 25 26 27
600
FTUS41 KCLE 100537
TAFMFD
TAF
KMFD 100537Z 1006/1106 27012G22KT P6SM BKN015 OVC035
     FM101400 27012KT 6SM -SHSN OVC022
     FM101800 27012G20KT 3SM -SHSN OVC018
     FM110000 27010G18KT 6SM -SHSN BKN028=

USA.gov is the U.S. government's official web portal to all federal, state and local government web resources and services.